sensor_id;sensor_type;location;lat;lon;timestamp;P1;durP1;ratioP1;P2;durP2;ratioP2
62696;SDS011;48761;42.680;23.312;2023-04-08T00:01:05;33.80;;;23.83;;
62696;SDS011;48761;42.680;23.312;2023-04-08T00:03:31;35.85;;;23.35;;
62696;SDS011;48761;42.680;23.312;2023-04-08T00:06:00;37.22;;;22.60;;
62696;SDS011;48761;42.680;23.312;2023-04-08T00:08:26;31.40;;;22.02;;
62696;SDS011;48761;42.680;23.312;2023-04-08T00:10:52;36.83;;;23.70;;
62696;SDS011;48761;42.680;23.312;2023-04-08T00:13:18;33.42;;;22.17;;
62696;SDS011;48761;42.680;23.312;2023-04-08T00:15:47;37.03;;;22.83;;
62696;SDS011;48761;42.680;23.312;2023-04-08T00:31:24;47.40;;;31.13;;
62696;SDS011;48761;42.680;23.312;2023-04-08T00:35:00;45.97;;;31.13;;
62696;SDS011;48761;42.680;23.312;2023-04-08T00:37:29;53.55;;;32.17;;
62696;SDS011;48761;42.680;23.312;2023-04-08T00:39:58;48.88;;;31.98;;
62696;SDS011;48761;42.680;23.312;2023-04-08T00:42:27;55.30;;;33.90;;
62696;SDS011;48761;42.680;23.312;2023-04-08T00:44:53;54.17;;;33.03;;
62696;SDS011;48761;42.680;23.312;2023-04-08T00:47:20;47.60;;;31.55;;
62696;SDS011;48761;42.680;23.312;2023-04-08T00:49:48;49.75;;;33.78;;
62696;SDS011;48761;42.680;23.312;2023-04-08T00:52:14;54.17;;;33.40;;
62696;SDS011;48761;42.680;23.312;2023-04-08T00:54:45;50.07;;;31.60;;
62696;SDS011;48761;42.680;23.312;2023-04-08T00:57:17;35.78;;;22.63;;
62696;SDS011;48761;42.680;23.312;2023-04-08T00:59:43;35.10;;;23.45;;
62696;SDS011;48761;42.680;23.312;2023-04-08T01:02:22;38.50;;;24.80;;
62696;SDS011;48761;42.680;23.312;2023-04-08T01:05:01;45.08;;;27.20;;
62696;SDS011;48761;42.680;23.312;2023-04-08T01:07:58;40.53;;;26.27;;
62696;SDS011;48761;42.680;23.312;2023-04-08T01:10:33;44.88;;;27.67;;
62696;SDS011;48761;42.680;23.312;2023-04-08T01:13:04;47.60;;;29.25;;
62696;SDS011;48761;42.680;23.312;2023-04-08T01:15:49;42.20;;;27.42;;
62696;SDS011;48761;42.680;23.312;2023-04-08T01:18:18;41.90;;;27.85;;
62696;SDS011;48761;42.680;23.312;2023-04-08T01:20:49;44.58;;;27.45;;
62696;SDS011;48761;42.680;23.312;2023-04-08T01:23:34;44.80;;;27.90;;
62696;SDS011;48761;42.680;23.312;2023-04-08T01:26:22;37.00;;;24.25;;
62696;SDS011;48761;42.680;23.312;2023-04-08T01:28:51;34.42;;;21.83;;
62696;SDS011;48761;42.680;23.312;2023-04-08T01:31:27;34.85;;;20.98;;
62696;SDS011;48761;42.680;23.312;2023-04-08T01:33:56;32.50;;;21.85;;
62696;SDS011;48761;42.680;23.312;2023-04-08T01:36:26;30.42;;;19.10;;
62696;SDS011;48761;42.680;23.312;2023-04-08T01:38:59;31.10;;;19.73;;
62696;SDS011;48761;42.680;23.312;2023-04-08T01:42:10;35.78;;;19.80;;
62696;SDS011;48761;42.680;23.312;2023-04-08T01:44:47;28.48;;;18.90;;
62696;SDS011;48761;42.680;23.312;2023-04-08T01:51:24;29.88;;;19.83;;
62696;SDS011;48761;42.680;23.312;2023-04-08T01:57:34;29.33;;;18.73;;
62696;SDS011;48761;42.680;23.312;2023-04-08T02:00:03;28.38;;;19.17;;
62696;SDS011;48761;42.680;23.312;2023-04-08T02:02:32;26.00;;;18.88;;
62696;SDS011;48761;42.680;23.312;2023-04-08T02:05:00;30.70;;;18.65;;
62696;SDS011;48761;42.680;23.312;2023-04-08T02:07:26;27.95;;;17.67;;
62696;SDS011;48761;42.680;23.312;2023-04-08T02:09:52;24.67;;;17.25;;
62696;SDS011;48761;42.680;23.312;2023-04-08T02:12:18;25.27;;;18.23;;
62696;SDS011;48761;42.680;23.312;2023-04-08T02:14:44;26.00;;;17.80;;
62696;SDS011;48761;42.680;23.312;2023-04-08T02:17:11;31.70;;;18.50;;
62696;SDS011;48761;42.680;23.312;2023-04-08T02:19:50;26.40;;;17.75;;
62696;SDS011;48761;42.680;23.312;2023-04-08T02:25:01;28.48;;;17.35;;
62696;SDS011;48761;42.680;23.312;2023-04-08T02:27:29;28.60;;;18.83;;
62696;SDS011;48761;42.680;23.312;2023-04-08T02:30:02;24.95;;;17.83;;
62696;SDS011;48761;42.680;23.312;2023-04-08T02:32:31;29.50;;;18.48;;
62696;SDS011;48761;42.680;23.312;2023-04-08T02:35:01;25.88;;;18.25;;
62696;SDS011;48761;42.680;23.312;2023-04-08T02:37:29;28.02;;;17.83;;
62696;SDS011;48761;42.680;23.312;2023-04-08T02:39:55;28.08;;;18.98;;
62696;SDS011;48761;42.680;23.312;2023-04-08T02:42:22;29.42;;;19.10;;
62696;SDS011;48761;42.680;23.312;2023-04-08T02:44:48;29.45;;;19.58;;
62696;SDS011;48761;42.680;23.312;2023-04-08T02:47:14;28.90;;;19.85;;
62696;SDS011;48761;42.680;23.312;2023-04-08T02:49:40;30.55;;;20.45;;
62696;SDS011;48761;42.680;23.312;2023-04-08T02:52:06;40.05;;;23.55;;
62696;SDS011;48761;42.680;23.312;2023-04-08T02:54:32;41.28;;;26.15;;
62696;SDS011;48761;42.680;23.312;2023-04-08T02:56:58;45.78;;;27.55;;
62696;SDS011;48761;42.680;23.312;2023-04-08T02:59:25;50.42;;;28.75;;
62696;SDS011;48761;42.680;23.312;2023-04-08T03:01:50;47.83;;;29.25;;
62696;SDS011;48761;42.680;23.312;2023-04-08T03:04:16;47.83;;;28.60;;
62696;SDS011;48761;42.680;23.312;2023-04-08T03:06:42;44.85;;;27.05;;
62696;SDS011;48761;42.680;23.312;2023-04-08T03:09:11;41.72;;;26.08;;
62696;SDS011;48761;42.680;23.312;2023-04-08T03:11:37;39.10;;;25.98;;
62696;SDS011;48761;42.680;23.312;2023-04-08T03:14:03;44.00;;;26.52;;
62696;SDS011;48761;42.680;23.312;2023-04-08T03:16:29;38.35;;;26.05;;
62696;SDS011;48761;42.680;23.312;2023-04-08T03:18:55;36.40;;;25.20;;
62696;SDS011;48761;42.680;23.312;2023-04-08T03:21:21;40.15;;;25.58;;
62696;SDS011;48761;42.680;23.312;2023-04-08T03:23:47;40.35;;;25.48;;
62696;SDS011;48761;42.680;23.312;2023-04-08T03:26:13;36.05;;;23.88;;
62696;SDS011;48761;42.680;23.312;2023-04-08T03:28:39;39.25;;;24.20;;
62696;SDS011;48761;42.680;23.312;2023-04-08T03:31:05;36.05;;;23.15;;
62696;SDS011;48761;42.680;23.312;2023-04-08T03:33:31;37.38;;;23.90;;
62696;SDS011;48761;42.680;23.312;2023-04-08T03:35:57;37.53;;;23.83;;
62696;SDS011;48761;42.680;23.312;2023-04-08T03:38:23;38.90;;;24.58;;
62696;SDS011;48761;42.680;23.312;2023-04-08T03:40:49;33.45;;;23.92;;
62696;SDS011;48761;42.680;23.312;2023-04-08T03:43:15;36.38;;;24.55;;
62696;SDS011;48761;42.680;23.312;2023-04-08T03:45:41;38.00;;;24.88;;
62696;SDS011;48761;42.680;23.312;2023-04-08T03:48:07;39.67;;;24.80;;
62696;SDS011;48761;42.680;23.312;2023-04-08T03:50:35;39.05;;;24.75;;
62696;SDS011;48761;42.680;23.312;2023-04-08T03:53:02;38.00;;;26.00;;
62696;SDS011;48761;42.680;23.312;2023-04-08T03:55:28;41.85;;;25.83;;
62696;SDS011;48761;42.680;23.312;2023-04-08T03:57:54;37.65;;;24.67;;
62696;SDS011;48761;42.680;23.312;2023-04-08T04:00:20;49.78;;;26.08;;
62696;SDS011;48761;42.680;23.312;2023-04-08T04:02:46;42.80;;;26.17;;
62696;SDS011;48761;42.680;23.312;2023-04-08T04:05:11;41.92;;;25.95;;
62696;SDS011;48761;42.680;23.312;2023-04-08T04:07:37;38.60;;;25.63;;
62696;SDS011;48761;42.680;23.312;2023-04-08T04:10:03;43.80;;;26.05;;
62696;SDS011;48761;42.680;23.312;2023-04-08T04:12:30;41.05;;;26.40;;
62696;SDS011;48761;42.680;23.312;2023-04-08T04:14:56;39.30;;;25.75;;
62696;SDS011;48761;42.680;23.312;2023-04-08T04:17:22;44.95;;;27.73;;
62696;SDS011;48761;42.680;23.312;2023-04-08T04:19:48;49.33;;;26.85;;
62696;SDS011;48761;42.680;23.312;2023-04-08T04:22:14;40.30;;;26.02;;
62696;SDS011;48761;42.680;23.312;2023-04-08T04:24:40;39.50;;;25.83;;
62696;SDS011;48761;42.680;23.312;2023-04-08T04:27:06;38.60;;;25.17;;
62696;SDS011;48761;42.680;23.312;2023-04-08T04:29:32;43.75;;;25.83;;
62696;SDS011;48761;42.680;23.312;2023-04-08T04:31:58;37.10;;;25.58;;
62696;SDS011;48761;42.680;23.312;2023-04-08T04:34:24;32.67;;;23.00;;
62696;SDS011;48761;42.680;23.312;2023-04-08T04:36:50;40.63;;;24.48;;
62696;SDS011;48761;42.680;23.312;2023-04-08T04:39:16;40.35;;;26.48;;
62696;SDS011;48761;42.680;23.312;2023-04-08T04:41:42;41.88;;;27.02;;
62696;SDS011;48761;42.680;23.312;2023-04-08T04:44:07;37.90;;;23.38;;
62696;SDS011;48761;42.680;23.312;2023-04-08T04:46:33;40.90;;;26.27;;
62696;SDS011;48761;42.680;23.312;2023-04-08T04:49:00;42.53;;;26.75;;
62696;SDS011;48761;42.680;23.312;2023-04-08T04:51:26;40.42;;;25.08;;
62696;SDS011;48761;42.680;23.312;2023-04-08T04:53:52;38.22;;;24.48;;
62696;SDS011;48761;42.680;23.312;2023-04-08T04:56:18;38.47;;;25.02;;
62696;SDS011;48761;42.680;23.312;2023-04-08T04:58:44;51.28;;;31.75;;
62696;SDS011;48761;42.680;23.312;2023-04-08T05:01:10;47.63;;;27.08;;
62696;SDS011;48761;42.680;23.312;2023-04-08T05:03:35;33.85;;;22.75;;
62696;SDS011;48761;42.680;23.312;2023-04-08T05:06:02;33.42;;;22.52;;
62696;SDS011;48761;42.680;23.312;2023-04-08T05:08:28;36.63;;;22.25;;
62696;SDS011;48761;42.680;23.312;2023-04-08T05:10:54;34.20;;;21.63;;
62696;SDS011;48761;42.680;23.312;2023-04-08T05:13:20;33.67;;;22.75;;
62696;SDS011;48761;42.680;23.312;2023-04-08T05:15:46;32.17;;;21.25;;
62696;SDS011;48761;42.680;23.312;2023-04-08T05:18:13;38.03;;;23.63;;
62696;SDS011;48761;42.680;23.312;2023-04-08T05:20:39;35.22;;;24.35;;
62696;SDS011;48761;42.680;23.312;2023-04-08T05:23:05;37.25;;;25.60;;
62696;SDS011;48761;42.680;23.312;2023-04-08T05:25:32;33.40;;;20.15;;
62696;SDS011;48761;42.680;23.312;2023-04-08T05:27:58;32.40;;;21.08;;
62696;SDS011;48761;42.680;23.312;2023-04-08T05:30:24;33.20;;;20.85;;
62696;SDS011;48761;42.680;23.312;2023-04-08T05:32:50;29.05;;;19.90;;
62696;SDS011;48761;42.680;23.312;2023-04-08T05:35:16;29.05;;;20.35;;
62696;SDS011;48761;42.680;23.312;2023-04-08T05:37:42;32.42;;;21.42;;
62696;SDS011;48761;42.680;23.312;2023-04-08T05:40:08;33.38;;;21.17;;
62696;SDS011;48761;42.680;23.312;2023-04-08T05:42:34;37.83;;;22.83;;
62696;SDS011;48761;42.680;23.312;2023-04-08T05:45:00;30.80;;;22.40;;
62696;SDS011;48761;42.680;23.312;2023-04-08T05:47:26;35.88;;;24.02;;
62696;SDS011;48761;42.680;23.312;2023-04-08T05:49:52;31.67;;;21.15;;
62696;SDS011;48761;42.680;23.312;2023-04-08T05:52:18;32.35;;;22.25;;
62696;SDS011;48761;42.680;23.312;2023-04-08T05:54:44;30.90;;;21.55;;
62696;SDS011;48761;42.680;23.312;2023-04-08T05:57:10;36.50;;;22.20;;
62696;SDS011;48761;42.680;23.312;2023-04-08T05:59:36;33.28;;;20.90;;
62696;SDS011;48761;42.680;23.312;2023-04-08T06:02:02;32.90;;;19.90;;
62696;SDS011;48761;42.680;23.312;2023-04-08T06:04:29;29.70;;;20.45;;
62696;SDS011;48761;42.680;23.312;2023-04-08T06:06:55;36.05;;;21.05;;
62696;SDS011;48761;42.680;23.312;2023-04-08T06:09:21;33.85;;;20.27;;
62696;SDS011;48761;42.680;23.312;2023-04-08T06:11:47;29.85;;;20.15;;
62696;SDS011;48761;42.680;23.312;2023-04-08T06:14:13;34.65;;;20.00;;
62696;SDS011;48761;42.680;23.312;2023-04-08T06:16:40;26.40;;;19.42;;
62696;SDS011;48761;42.680;23.312;2023-04-08T06:19:08;32.75;;;20.75;;
62696;SDS011;48761;42.680;23.312;2023-04-08T06:21:34;28.48;;;19.13;;
62696;SDS011;48761;42.680;23.312;2023-04-08T06:24:00;30.42;;;17.88;;
62696;SDS011;48761;42.680;23.312;2023-04-08T06:26:26;28.65;;;18.65;;
62696;SDS011;48761;42.680;23.312;2023-04-08T06:28:53;27.52;;;18.98;;
62696;SDS011;48761;42.680;23.312;2023-04-08T06:31:19;28.48;;;18.33;;
62696;SDS011;48761;42.680;23.312;2023-04-08T06:33:45;28.50;;;18.40;;
62696;SDS011;48761;42.680;23.312;2023-04-08T06:36:11;28.13;;;18.33;;
62696;SDS011;48761;42.680;23.312;2023-04-08T06:38:37;30.63;;;18.17;;
62696;SDS011;48761;42.680;23.312;2023-04-08T06:41:03;25.35;;;17.02;;
62696;SDS011;48761;42.680;23.312;2023-04-08T06:43:31;26.70;;;17.40;;
62696;SDS011;48761;42.680;23.312;2023-04-08T06:45:57;26.35;;;17.67;;
62696;SDS011;48761;42.680;23.312;2023-04-08T06:48:23;25.90;;;17.63;;
62696;SDS011;48761;42.680;23.312;2023-04-08T06:50:50;29.15;;;17.75;;
62696;SDS011;48761;42.680;23.312;2023-04-08T06:53:15;29.20;;;18.25;;
62696;SDS011;48761;42.680;23.312;2023-04-08T06:55:41;24.65;;;17.38;;
62696;SDS011;48761;42.680;23.312;2023-04-08T06:58:07;23.35;;;17.08;;
62696;SDS011;48761;42.680;23.312;2023-04-08T07:00:33;26.58;;;17.38;;
62696;SDS011;48761;42.680;23.312;2023-04-08T07:02:59;25.40;;;16.95;;
62696;SDS011;48761;42.680;23.312;2023-04-08T07:05:25;26.98;;;17.92;;
62696;SDS011;48761;42.680;23.312;2023-04-08T07:07:51;24.05;;;17.52;;
62696;SDS011;48761;42.680;23.312;2023-04-08T07:10:17;28.35;;;18.38;;
62696;SDS011;48761;42.680;23.312;2023-04-08T07:12:43;27.52;;;18.52;;
62696;SDS011;48761;42.680;23.312;2023-04-08T07:15:09;30.08;;;18.63;;
62696;SDS011;48761;42.680;23.312;2023-04-08T07:17:35;28.88;;;18.65;;
62696;SDS011;48761;42.680;23.312;2023-04-08T07:20:01;29.35;;;17.35;;
62696;SDS011;48761;42.680;23.312;2023-04-08T07:22:27;27.83;;;18.85;;
62696;SDS011;48761;42.680;23.312;2023-04-08T07:24:53;26.80;;;18.88;;
62696;SDS011;48761;42.680;23.312;2023-04-08T07:27:19;31.42;;;19.02;;
62696;SDS011;48761;42.680;23.312;2023-04-08T07:29:45;28.52;;;18.05;;
62696;SDS011;48761;42.680;23.312;2023-04-08T07:32:11;27.83;;;18.38;;
62696;SDS011;48761;42.680;23.312;2023-04-08T07:34:37;28.77;;;19.88;;
62696;SDS011;48761;42.680;23.312;2023-04-08T07:37:03;31.05;;;19.67;;
62696;SDS011;48761;42.680;23.312;2023-04-08T07:39:29;32.17;;;19.60;;
62696;SDS011;48761;42.680;23.312;2023-04-08T07:41:55;29.05;;;19.17;;
62696;SDS011;48761;42.680;23.312;2023-04-08T07:44:21;30.25;;;18.90;;
62696;SDS011;48761;42.680;23.312;2023-04-08T07:46:46;34.08;;;19.70;;
62696;SDS011;48761;42.680;23.312;2023-04-08T07:49:12;29.15;;;19.08;;
62696;SDS011;48761;42.680;23.312;2023-04-08T07:51:38;24.63;;;17.33;;
62696;SDS011;48761;42.680;23.312;2023-04-08T07:54:04;27.00;;;17.08;;
62696;SDS011;48761;42.680;23.312;2023-04-08T07:56:30;28.17;;;17.73;;
62696;SDS011;48761;42.680;23.312;2023-04-08T07:58:56;25.95;;;16.77;;
62696;SDS011;48761;42.680;23.312;2023-04-08T08:01:22;25.85;;;17.25;;
62696;SDS011;48761;42.680;23.312;2023-04-08T08:03:48;25.75;;;17.70;;
62696;SDS011;48761;42.680;23.312;2023-04-08T08:06:15;23.80;;;16.80;;
62696;SDS011;48761;42.680;23.312;2023-04-08T08:08:41;22.35;;;16.63;;
62696;SDS011;48761;42.680;23.312;2023-04-08T08:11:07;23.00;;;16.75;;
62696;SDS011;48761;42.680;23.312;2023-04-08T08:13:33;28.08;;;17.65;;
62696;SDS011;48761;42.680;23.312;2023-04-08T08:15:59;24.40;;;17.00;;
62696;SDS011;48761;42.680;23.312;2023-04-08T08:18:25;25.75;;;18.08;;
62696;SDS011;48761;42.680;23.312;2023-04-08T08:20:51;25.02;;;17.95;;
62696;SDS011;48761;42.680;23.312;2023-04-08T08:23:17;29.95;;;18.33;;
62696;SDS011;48761;42.680;23.312;2023-04-08T08:25:43;23.48;;;17.30;;
62696;SDS011;48761;42.680;23.312;2023-04-08T08:28:09;25.83;;;17.42;;
62696;SDS011;48761;42.680;23.312;2023-04-08T08:30:35;27.08;;;18.15;;
62696;SDS011;48761;42.680;23.312;2023-04-08T08:33:01;25.10;;;17.70;;
62696;SDS011;48761;42.680;23.312;2023-04-08T08:35:26;23.33;;;17.02;;
62696;SDS011;48761;42.680;23.312;2023-04-08T08:37:52;28.25;;;18.25;;
62696;SDS011;48761;42.680;23.312;2023-04-08T08:40:18;31.25;;;19.83;;
62696;SDS011;48761;42.680;23.312;2023-04-08T08:42:49;28.08;;;18.00;;
62696;SDS011;48761;42.680;23.312;2023-04-08T08:45:16;30.08;;;19.05;;
62696;SDS011;48761;42.680;23.312;2023-04-08T08:47:43;30.80;;;18.40;;
62696;SDS011;48761;42.680;23.312;2023-04-08T08:50:09;31.92;;;19.58;;
62696;SDS011;48761;42.680;23.312;2023-04-08T08:52:36;29.88;;;18.98;;
62696;SDS011;48761;42.680;23.312;2023-04-08T08:55:02;29.80;;;18.33;;
62696;SDS011;48761;42.680;23.312;2023-04-08T08:57:28;29.33;;;18.77;;
62696;SDS011;48761;42.680;23.312;2023-04-08T08:59:54;27.90;;;19.08;;
62696;SDS011;48761;42.680;23.312;2023-04-08T09:02:23;25.25;;;18.35;;
62696;SDS011;48761;42.680;23.312;2023-04-08T09:05:00;27.40;;;18.30;;
62696;SDS011;48761;42.680;23.312;2023-04-08T09:07:28;29.30;;;17.90;;
62696;SDS011;48761;42.680;23.312;2023-04-08T09:09:56;28.35;;;18.45;;
62696;SDS011;48761;42.680;23.312;2023-04-08T09:12:24;26.73;;;18.33;;
62696;SDS011;48761;42.680;23.312;2023-04-08T09:14:50;26.88;;;18.67;;
62696;SDS011;48761;42.680;23.312;2023-04-08T09:17:38;27.98;;;18.45;;
62696;SDS011;48761;42.680;23.312;2023-04-08T09:20:11;30.75;;;19.02;;
62696;SDS011;48761;42.680;23.312;2023-04-08T09:22:57;31.63;;;21.27;;
62696;SDS011;48761;42.680;23.312;2023-04-08T09:25:30;29.60;;;18.23;;
62696;SDS011;48761;42.680;23.312;2023-04-08T09:27:59;35.13;;;22.25;;
62696;SDS011;48761;42.680;23.312;2023-04-08T09:33:14;32.17;;;20.65;;
62696;SDS011;48761;42.680;23.312;2023-04-08T09:35:44;27.60;;;16.88;;
62696;SDS011;48761;42.680;23.312;2023-04-08T09:38:14;25.83;;;16.70;;
62696;SDS011;48761;42.680;23.312;2023-04-08T09:40:40;26.60;;;16.42;;
62696;SDS011;48761;42.680;23.312;2023-04-08T09:51:35;23.17;;;13.98;;
62696;SDS011;48761;42.680;23.312;2023-04-08T09:54:22;20.92;;;14.38;;
62696;SDS011;48761;42.680;23.312;2023-04-08T09:57:00;25.33;;;15.75;;
62696;SDS011;48761;42.680;23.312;2023-04-08T09:59:38;22.83;;;15.18;;
62696;SDS011;48761;42.680;23.312;2023-04-08T10:02:12;24.08;;;15.73;;
62696;SDS011;48761;42.680;23.312;2023-04-08T10:04:41;25.92;;;16.27;;
62696;SDS011;48761;42.680;23.312;2023-04-08T10:07:15;25.10;;;16.83;;
62696;SDS011;48761;42.680;23.312;2023-04-08T10:09:41;24.73;;;17.20;;
62696;SDS011;48761;42.680;23.312;2023-04-08T10:12:07;27.10;;;16.30;;
62696;SDS011;48761;42.680;23.312;2023-04-08T10:14:34;25.27;;;15.90;;
62696;SDS011;48761;42.680;23.312;2023-04-08T10:19:51;25.48;;;15.52;;
62696;SDS011;48761;42.680;23.312;2023-04-08T10:27:40;27.25;;;17.33;;
62696;SDS011;48761;42.680;23.312;2023-04-08T10:32:50;22.48;;;15.02;;
62696;SDS011;48761;42.680;23.312;2023-04-08T10:35:16;23.30;;;16.48;;
62696;SDS011;48761;42.680;23.312;2023-04-08T10:37:42;25.20;;;16.35;;
62696;SDS011;48761;42.680;23.312;2023-04-08T10:40:19;53.30;;;32.38;;
62696;SDS011;48761;42.680;23.312;2023-04-08T10:42:45;23.35;;;16.05;;
62696;SDS011;48761;42.680;23.312;2023-04-08T10:45:15;31.30;;;15.88;;
62696;SDS011;48761;42.680;23.312;2023-04-08T10:47:41;22.35;;;14.75;;
62696;SDS011;48761;42.680;23.312;2023-04-08T10:50:18;25.10;;;16.42;;
62696;SDS011;48761;42.680;23.312;2023-04-08T10:52:48;23.77;;;15.90;;
62696;SDS011;48761;42.680;23.312;2023-04-08T10:57:49;24.05;;;15.52;;
62696;SDS011;48761;42.680;23.312;2023-04-08T11:00:30;25.40;;;16.33;;
62696;SDS011;48761;42.680;23.312;2023-04-08T11:03:08;23.55;;;14.90;;
62696;SDS011;48761;42.680;23.312;2023-04-08T11:05:35;22.63;;;15.15;;
62696;SDS011;48761;42.680;23.312;2023-04-08T11:08:02;23.77;;;16.33;;
62696;SDS011;48761;42.680;23.312;2023-04-08T11:10:29;23.60;;;15.77;;
62696;SDS011;48761;42.680;23.312;2023-04-08T11:12:55;23.00;;;14.52;;
62696;SDS011;48761;42.680;23.312;2023-04-08T11:15:25;25.20;;;15.82;;
62696;SDS011;48761;42.680;23.312;2023-04-08T11:17:54;26.17;;;14.70;;
62696;SDS011;48761;42.680;23.312;2023-04-08T11:20:20;23.08;;;14.77;;
62696;SDS011;48761;42.680;23.312;2023-04-08T11:22:47;22.73;;;16.20;;
62696;SDS011;48761;42.680;23.312;2023-04-08T11:25:13;23.05;;;14.98;;
62696;SDS011;48761;42.680;23.312;2023-04-08T11:27:39;22.98;;;14.60;;
62696;SDS011;48761;42.680;23.312;2023-04-08T11:30:05;20.73;;;14.07;;
62696;SDS011;48761;42.680;23.312;2023-04-08T11:32:32;16.98;;;11.55;;
62696;SDS011;48761;42.680;23.312;2023-04-08T11:35:00;20.95;;;14.18;;
62696;SDS011;48761;42.680;23.312;2023-04-08T11:37:39;19.85;;;14.20;;
62696;SDS011;48761;42.680;23.312;2023-04-08T11:40:09;19.75;;;12.93;;
62696;SDS011;48761;42.680;23.312;2023-04-08T11:42:36;19.23;;;13.70;;
62696;SDS011;48761;42.680;23.312;2023-04-08T11:45:10;20.70;;;12.07;;
62696;SDS011;48761;42.680;23.312;2023-04-08T11:47:37;17.00;;;12.35;;
62696;SDS011;48761;42.680;23.312;2023-04-08T11:50:03;16.83;;;11.00;;
62696;SDS011;48761;42.680;23.312;2023-04-08T11:52:40;16.42;;;11.20;;
62696;SDS011;48761;42.680;23.312;2023-04-08T11:55:06;15.73;;;11.98;;
62696;SDS011;48761;42.680;23.312;2023-04-08T11:57:32;18.30;;;12.10;;
62696;SDS011;48761;42.680;23.312;2023-04-08T11:59:58;17.40;;;12.30;;
62696;SDS011;48761;42.680;23.312;2023-04-08T12:02:24;18.33;;;11.70;;
62696;SDS011;48761;42.680;23.312;2023-04-08T12:04:50;16.80;;;12.13;;
62696;SDS011;48761;42.680;23.312;2023-04-08T12:07:15;19.85;;;12.23;;
62696;SDS011;48761;42.680;23.312;2023-04-08T12:09:41;17.05;;;11.52;;
62696;SDS011;48761;42.680;23.312;2023-04-08T12:12:07;20.40;;;11.68;;
62696;SDS011;48761;42.680;23.312;2023-04-08T12:14:33;18.33;;;11.82;;
62696;SDS011;48761;42.680;23.312;2023-04-08T12:16:59;29.50;;;19.27;;
62696;SDS011;48761;42.680;23.312;2023-04-08T12:19:25;31.10;;;20.25;;
62696;SDS011;48761;42.680;23.312;2023-04-08T12:21:51;17.10;;;12.25;;
62696;SDS011;48761;42.680;23.312;2023-04-08T12:24:17;18.17;;;11.73;;
62696;SDS011;48761;42.680;23.312;2023-04-08T12:26:43;15.73;;;10.57;;
62696;SDS011;48761;42.680;23.312;2023-04-08T12:29:08;14.80;;;10.45;;
62696;SDS011;48761;42.680;23.312;2023-04-08T12:31:34;19.85;;;11.25;;
62696;SDS011;48761;42.680;23.312;2023-04-08T12:34:00;14.73;;;10.13;;
62696;SDS011;48761;42.680;23.312;2023-04-08T12:36:26;14.95;;;10.40;;
62696;SDS011;48761;42.680;23.312;2023-04-08T12:38:52;14.00;;;9.20;;
62696;SDS011;48761;42.680;23.312;2023-04-08T12:41:18;18.77;;;10.60;;
62696;SDS011;48761;42.680;23.312;2023-04-08T12:43:44;14.38;;;9.43;;
62696;SDS011;48761;42.680;23.312;2023-04-08T12:46:10;13.90;;;10.73;;
62696;SDS011;48761;42.680;23.312;2023-04-08T12:48:36;12.43;;;9.75;;
62696;SDS011;48761;42.680;23.312;2023-04-08T12:51:02;19.80;;;14.05;;
62696;SDS011;48761;42.680;23.312;2023-04-08T12:53:28;19.80;;;12.18;;
62696;SDS011;48761;42.680;23.312;2023-04-08T12:55:54;15.30;;;9.98;;
62696;SDS011;48761;42.680;23.312;2023-04-08T12:58:20;15.93;;;10.88;;
62696;SDS011;48761;42.680;23.312;2023-04-08T13:00:46;15.60;;;10.48;;
62696;SDS011;48761;42.680;23.312;2023-04-08T13:03:12;16.05;;;10.63;;
62696;SDS011;48761;42.680;23.312;2023-04-08T13:05:38;15.30;;;9.68;;
62696;SDS011;48761;42.680;23.312;2023-04-08T13:08:04;12.82;;;9.45;;
62696;SDS011;48761;42.680;23.312;2023-04-08T13:10:30;14.52;;;9.38;;
62696;SDS011;48761;42.680;23.312;2023-04-08T13:12:56;14.43;;;9.02;;
62696;SDS011;48761;42.680;23.312;2023-04-08T13:15:22;12.18;;;9.25;;
62696;SDS011;48761;42.680;23.312;2023-04-08T13:17:48;12.38;;;9.30;;
62696;SDS011;48761;42.680;23.312;2023-04-08T13:20:14;13.07;;;9.75;;
62696;SDS011;48761;42.680;23.312;2023-04-08T13:22:40;12.55;;;9.38;;
62696;SDS011;48761;42.680;23.312;2023-04-08T13:25:06;13.98;;;9.93;;
62696;SDS011;48761;42.680;23.312;2023-04-08T13:27:33;15.20;;;10.43;;
62696;SDS011;48761;42.680;23.312;2023-04-08T13:29:58;18.05;;;10.52;;
62696;SDS011;48761;42.680;23.312;2023-04-08T13:32:24;16.83;;;12.30;;
62696;SDS011;48761;42.680;23.312;2023-04-08T13:34:50;17.08;;;11.70;;
62696;SDS011;48761;42.680;23.312;2023-04-08T13:37:19;19.90;;;13.70;;
62696;SDS011;48761;42.680;23.312;2023-04-08T13:39:45;12.30;;;9.45;;
62696;SDS011;48761;42.680;23.312;2023-04-08T13:42:11;12.93;;;9.52;;
62696;SDS011;48761;42.680;23.312;2023-04-08T13:44:37;16.58;;;10.05;;
62696;SDS011;48761;42.680;23.312;2023-04-08T13:47:03;14.32;;;9.20;;
62696;SDS011;48761;42.680;23.312;2023-04-08T13:49:29;16.15;;;11.20;;
62696;SDS011;48761;42.680;23.312;2023-04-08T13:51:55;20.15;;;10.45;;
62696;SDS011;48761;42.680;23.312;2023-04-08T13:54:21;14.27;;;9.98;;
62696;SDS011;48761;42.680;23.312;2023-04-08T13:56:47;13.82;;;10.38;;
62696;SDS011;48761;42.680;23.312;2023-04-08T13:59:12;13.18;;;9.85;;
62696;SDS011;48761;42.680;23.312;2023-04-08T14:01:38;14.73;;;10.73;;
62696;SDS011;48761;42.680;23.312;2023-04-08T14:04:04;12.77;;;9.65;;
62696;SDS011;48761;42.680;23.312;2023-04-08T14:06:31;17.63;;;11.13;;
62696;SDS011;48761;42.680;23.312;2023-04-08T14:09:00;14.45;;;11.15;;
62696;SDS011;48761;42.680;23.312;2023-04-08T14:11:26;13.57;;;10.43;;
62696;SDS011;48761;42.680;23.312;2023-04-08T14:13:51;16.02;;;10.18;;
62696;SDS011;48761;42.680;23.312;2023-04-08T14:16:17;13.30;;;9.15;;
62696;SDS011;48761;42.680;23.312;2023-04-08T14:18:44;12.85;;;9.27;;
62696;SDS011;48761;42.680;23.312;2023-04-08T14:21:10;13.50;;;9.48;;
62696;SDS011;48761;42.680;23.312;2023-04-08T14:23:36;13.93;;;8.82;;
62696;SDS011;48761;42.680;23.312;2023-04-08T14:26:01;12.30;;;9.50;;
62696;SDS011;48761;42.680;23.312;2023-04-08T14:28:27;15.73;;;10.70;;
62696;SDS011;48761;42.680;23.312;2023-04-08T14:30:53;15.23;;;10.82;;
62696;SDS011;48761;42.680;23.312;2023-04-08T14:33:19;16.35;;;11.55;;
62696;SDS011;48761;42.680;23.312;2023-04-08T14:35:45;21.30;;;12.32;;
62696;SDS011;48761;42.680;23.312;2023-04-08T14:38:11;15.85;;;12.80;;
62696;SDS011;48761;42.680;23.312;2023-04-08T14:40:37;16.38;;;12.38;;
62696;SDS011;48761;42.680;23.312;2023-04-08T14:43:03;15.23;;;10.77;;
62696;SDS011;48761;42.680;23.312;2023-04-08T14:45:29;16.23;;;11.57;;
62696;SDS011;48761;42.680;23.312;2023-04-08T14:47:55;17.83;;;12.57;;
62696;SDS011;48761;42.680;23.312;2023-04-08T14:50:21;17.30;;;12.10;;
62696;SDS011;48761;42.680;23.312;2023-04-08T14:52:47;13.68;;;10.82;;
62696;SDS011;48761;42.680;23.312;2023-04-08T14:55:13;14.55;;;10.05;;
62696;SDS011;48761;42.680;23.312;2023-04-08T14:57:39;14.05;;;10.27;;
62696;SDS011;48761;42.680;23.312;2023-04-08T15:00:05;14.45;;;10.05;;